createdAt,value
2023-04-06T00:01:23.988Z,56.72
2023-04-06T00:06:27.825Z,43.88
2023-04-06T00:11:32.031Z,49.67
2023-04-06T00:16:34.925Z,40.30
2023-04-06T00:21:37.816Z,42.22
2023-04-06T00:26:42.114Z,46.80
2023-04-06T00:31:45.019Z,50.40
2023-04-06T00:36:47.840Z,49.05
2023-04-06T00:41:54.312Z,50.27
2023-04-06T00:46:57.096Z,49.65
2023-04-06T00:51:59.846Z,50.43
2023-04-06T00:57:04.074Z,50.30
2023-04-06T01:02:07.463Z,44.43
2023-04-06T01:07:16.957Z,44.58
2023-04-06T01:12:34.442Z,50.33
2023-04-06T01:17:41.530Z,46.22
2023-04-06T01:22:50.833Z,44.80
2023-04-06T01:27:54.904Z,41.70
2023-04-06T01:33:01.187Z,38.47
2023-04-06T01:38:16.347Z,41.37
2023-04-06T01:43:20.803Z,42.10
2023-04-06T01:48:37.447Z,40.75
2023-04-06T01:53:51.928Z,43.27
2023-04-06T01:58:57.705Z,44.28
2023-04-06T02:04:06.059Z,41.57
2023-04-06T02:09:10.769Z,44.53
2023-04-06T02:14:37.394Z,40.03
2023-04-06T02:19:40.924Z,38.53
2023-04-06T02:24:45.208Z,39.17
2023-04-06T02:29:49.060Z,36.63
2023-04-06T02:34:56.512Z,41.03
2023-04-06T02:40:01.964Z,36.97
2023-04-06T02:45:08.284Z,36.63
2023-04-06T02:50:19.627Z,43.58
2023-04-06T02:55:35.958Z,40.42
2023-04-06T03:00:39.560Z,38.37
2023-04-06T03:05:42.596Z,37.55
2023-04-06T03:10:47.871Z,34.05
2023-04-06T03:15:52.769Z,41.13
2023-04-06T03:20:57.675Z,36.60
2023-04-06T03:26:23.194Z,37.00
2023-04-06T03:31:28.333Z,37.73
2023-04-06T03:37:09.893Z,39.27
2023-04-06T03:42:20.360Z,42.27
2023-04-06T03:47:32.695Z,41.45
2023-04-06T03:52:40.139Z,45.73
2023-04-06T03:57:44.377Z,41.03
2023-04-06T04:02:47.383Z,43.13
2023-04-06T04:07:50.413Z,47.35
2023-04-06T04:12:54.759Z,46.75
2023-04-06T04:17:58.252Z,50.60
2023-04-06T04:23:01.073Z,35.33
2023-04-06T04:28:08.881Z,51.80
2023-04-06T04:33:13.634Z,53.65
2023-04-06T04:38:18.166Z,61.75
2023-04-06T04:43:28.379Z,55.53
2023-04-06T04:48:32.675Z,62.67
2023-04-06T04:53:38.706Z,62.57
2023-04-06T04:58:54.095Z,71.38
2023-04-06T05:03:57.534Z,62.00
2023-04-06T05:09:00.379Z,71.37
2023-04-06T05:14:08.242Z,58.03
2023-04-06T05:19:12.579Z,62.35
2023-04-06T05:24:19.919Z,62.78
2023-04-06T05:29:25.966Z,63.75
2023-04-06T05:34:28.971Z,63.78
2023-04-06T05:39:32.947Z,69.15
2023-04-06T05:44:39.070Z,75.90
2023-04-06T05:49:49.228Z,74.72
2023-04-06T05:55:00.932Z,71.78
2023-04-06T06:00:07.817Z,78.45
2023-04-06T06:05:23.107Z,70.82
2023-04-06T06:10:27.198Z,70.80
2023-04-06T06:15:31.695Z,67.78
2023-04-06T06:20:34.897Z,78.25
2023-04-06T06:25:41.418Z,72.17
2023-04-06T06:30:45.800Z,88.65
2023-04-06T06:35:54.048Z,77.45
2023-04-06T06:40:57.188Z,77.38
2023-04-06T06:46:05.044Z,79.93
2023-04-06T06:51:08.055Z,80.30
2023-04-06T06:56:11.469Z,84.97
2023-04-06T07:01:16.073Z,85.25
2023-04-06T07:06:19.523Z,92.05
2023-04-06T07:11:22.753Z,87.85
2023-04-06T07:16:27.149Z,99.72
2023-04-06T07:21:31.731Z,112.22
2023-04-06T07:26:34.730Z,104.23
2023-04-06T07:31:38.992Z,112.00
2023-04-06T07:36:42.116Z,105.30
2023-04-06T07:41:45.334Z,124.50
2023-04-06T07:46:49.673Z,108.40
2023-04-06T07:51:53.342Z,102.50
2023-04-06T07:56:56.796Z,102.13
2023-04-06T08:02:01.487Z,106.40
2023-04-06T08:07:04.675Z,124.03
2023-04-06T08:12:07.888Z,111.10
2023-04-06T08:17:12.233Z,113.30
2023-04-06T08:22:15.223Z,119.13
2023-04-06T08:27:18.140Z,122.68
2023-04-06T08:32:22.447Z,124.75
2023-04-06T08:37:25.468Z,112.28
2023-04-06T08:42:28.850Z,122.78
2023-04-06T08:47:33.250Z,109.00
2023-04-06T08:52:36.294Z,115.20
2023-04-06T08:57:39.428Z,108.93
2023-04-06T09:02:47.691Z,109.05
2023-04-06T09:07:50.639Z,102.07
2023-04-06T09:12:58.852Z,105.43
2023-04-06T09:18:03.482Z,107.65
2023-04-06T09:23:06.509Z,118.63
2023-04-06T09:28:09.433Z,107.40
2023-04-06T09:33:13.753Z,106.93
2023-04-06T09:38:16.823Z,99.18
2023-04-06T09:43:26.298Z,96.18
2023-04-06T09:48:33.176Z,84.88
2023-04-06T09:53:37.518Z,90.88
2023-04-06T09:58:43.421Z,90.93
2023-04-06T10:03:53.924Z,104.60
2023-04-06T10:08:58.865Z,105.53
2023-04-06T10:14:01.846Z,120.50
2023-04-06T10:19:09.232Z,102.60
2023-04-06T10:24:13.218Z,96.13
2023-04-06T10:29:16.085Z,110.30
2023-04-06T10:34:20.414Z,101.03
2023-04-06T10:39:28.069Z,90.90
2023-04-06T10:44:31.039Z,114.07
2023-04-06T10:49:36.608Z,109.50
2023-04-06T10:54:43.798Z,83.57
2023-04-06T10:59:46.690Z,82.18
2023-04-06T11:04:58.432Z,96.40
2023-04-06T11:10:14.585Z,80.90
2023-04-06T11:15:19.700Z,83.77
2023-04-06T11:20:23.990Z,68.47
2023-04-06T11:25:28.637Z,61.03
2023-04-06T11:30:31.617Z,62.83
2023-04-06T11:35:36.800Z,57.17
2023-04-06T11:40:39.737Z,49.67
2023-04-06T11:45:44.085Z,47.58
2023-04-06T11:50:50.128Z,51.70
2023-04-06T11:55:53.129Z,40.65
2023-04-06T12:00:56.067Z,40.42
2023-04-06T12:06:00.895Z,31.45
2023-04-06T12:11:03.806Z,27.77
2023-04-06T12:16:07.622Z,28.67
2023-04-06T12:21:11.987Z,25.23
2023-04-06T12:26:15.028Z,25.23
2023-04-06T12:31:18.273Z,21.63
2023-04-06T12:36:23.227Z,22.08
2023-04-06T12:41:26.196Z,22.35
2023-04-06T12:46:30.961Z,27.08
2023-04-06T12:51:41.479Z,24.00
2023-04-06T12:56:44.695Z,26.50
2023-04-06T13:01:47.740Z,26.53
2023-04-06T13:06:52.014Z,24.52
2023-04-06T13:11:54.981Z,22.87
2023-04-06T13:16:58.454Z,27.85
2023-04-06T13:22:02.751Z,28.63
2023-04-06T13:27:05.817Z,27.00
2023-04-06T13:32:10.995Z,31.85
2023-04-06T13:37:15.837Z,24.65
2023-04-06T13:42:18.752Z,28.20
2023-04-06T13:47:22.240Z,29.30
2023-04-06T13:52:26.597Z,26.42
2023-04-06T13:57:30.716Z,26.60
2023-04-06T14:02:33.703Z,28.63
2023-04-06T14:07:38.041Z,32.28
2023-04-06T14:12:40.944Z,33.83
2023-04-06T14:17:43.833Z,34.60
2023-04-06T14:22:50.356Z,34.25
2023-04-06T14:27:53.353Z,31.83
2023-04-06T14:32:58.946Z,36.22
2023-04-06T14:38:03.172Z,35.78
2023-04-06T14:43:06.057Z,37.93
2023-04-06T14:48:12.884Z,34.47
2023-04-06T14:53:17.363Z,35.65
2023-04-06T14:58:20.413Z,32.30
2023-04-06T15:03:47.004Z,29.97
2023-04-06T15:08:52.018Z,27.05
2023-04-06T15:13:54.904Z,27.67
2023-04-06T15:18:57.834Z,27.23
2023-04-06T15:24:02.232Z,30.40
2023-04-06T15:29:05.386Z,31.50
2023-04-06T15:39:33.541Z,29.03
2023-04-06T15:44:36.555Z,26.90
2023-04-06T15:49:39.455Z,32.53
2023-04-06T15:54:43.671Z,28.00
2023-04-06T15:59:46.521Z,29.33
2023-04-06T16:04:49.431Z,30.73
2023-04-06T16:09:53.667Z,32.75
2023-04-06T16:14:59.233Z,34.05
2023-04-06T16:20:02.135Z,28.08
2023-04-06T16:25:07.143Z,29.98
2023-04-06T16:30:11.082Z,34.53
2023-04-06T16:35:13.929Z,30.73
2023-04-06T16:40:18.321Z,30.63
2023-04-06T16:45:21.534Z,28.70
2023-04-06T16:50:24.394Z,33.30
2023-04-06T16:55:28.605Z,33.08
2023-04-06T17:00:31.514Z,33.28
2023-04-06T17:05:34.820Z,31.48
2023-04-06T17:15:49.850Z,32.80
2023-04-06T17:20:52.825Z,37.17
2023-04-06T17:25:57.917Z,34.10
2023-04-06T17:31:01.142Z,36.25
2023-04-06T17:36:04.397Z,36.13
2023-04-06T17:41:08.623Z,37.90
2023-04-06T17:46:11.645Z,41.10
2023-04-06T17:51:15.369Z,38.03
2023-04-06T17:56:19.515Z,42.00
2023-04-06T18:01:22.415Z,49.13
2023-04-06T18:06:26.250Z,44.38
2023-04-06T18:11:32.580Z,42.92
2023-04-06T18:16:35.622Z,49.00
2023-04-06T18:21:38.463Z,50.25
2023-04-06T18:26:42.727Z,51.93
2023-04-06T18:31:50.514Z,57.42
2023-04-06T18:36:53.426Z,60.90
2023-04-06T18:42:00.142Z,60.58
2023-04-06T18:47:02.963Z,72.45
2023-04-06T18:52:06.402Z,72.90
2023-04-06T18:57:11.253Z,93.75
2023-04-06T19:02:14.430Z,99.18
2023-04-06T19:07:17.855Z,99.07
2023-04-06T19:12:22.116Z,104.18
2023-04-06T19:17:24.932Z,100.03
2023-04-06T19:22:28.005Z,104.15
2023-04-06T19:27:32.481Z,122.60
2023-04-06T19:32:35.630Z,130.38
2023-04-06T19:37:38.928Z,126.63
2023-04-06T19:42:43.158Z,147.77
2023-04-06T19:47:46.040Z,146.93
2023-04-06T19:52:49.772Z,158.23
2023-04-06T19:57:54.352Z,127.27
2023-04-06T20:02:57.326Z,105.10
2023-04-06T20:08:00.737Z,91.75
2023-04-06T20:13:05.032Z,79.85
2023-04-06T20:18:09.093Z,69.28
2023-04-06T20:23:12.776Z,56.95
2023-04-06T20:28:17.383Z,64.07
2023-04-06T20:33:20.351Z,60.65
2023-04-06T20:38:32.377Z,53.63
2023-04-06T20:43:37.631Z,55.03
2023-04-06T20:48:40.610Z,54.53
2023-04-06T20:53:43.395Z,53.72
2023-04-06T20:58:47.676Z,52.88
2023-04-06T21:03:51.065Z,46.97
2023-04-06T21:08:53.952Z,54.50
2023-04-06T21:13:58.178Z,56.75
2023-04-06T21:19:01.031Z,51.47
2023-04-06T21:24:04.300Z,49.90
2023-04-06T21:29:08.593Z,46.47
2023-04-06T21:34:11.849Z,47.60
2023-04-06T21:39:14.703Z,51.67
2023-04-06T21:44:19.035Z,58.55
2023-04-06T21:49:21.862Z,57.72
2023-04-06T21:54:24.636Z,57.72
2023-04-06T21:59:28.852Z,46.65
2023-04-06T22:04:32.302Z,45.80
2023-04-06T22:09:35.338Z,32.30
2023-04-06T22:14:39.517Z,31.13
2023-04-06T22:19:42.470Z,30.63
2023-04-06T22:24:45.409Z,32.78
2023-04-06T22:29:49.588Z,32.20
2023-04-06T22:34:52.487Z,32.72
2023-04-06T22:39:56.031Z,29.85
2023-04-06T22:45:00.185Z,26.38
2023-04-06T22:50:03.031Z,23.80
2023-04-06T22:55:06.411Z,33.80
2023-04-06T23:00:11.902Z,28.58
2023-04-06T23:05:14.827Z,30.05
2023-04-06T23:10:17.875Z,30.00
2023-04-06T23:15:22.036Z,24.80
2023-04-06T23:20:24.962Z,33.17
2023-04-06T23:25:27.806Z,42.40
2023-04-06T23:30:31.927Z,37.92
2023-04-06T23:35:34.740Z,38.63
2023-04-06T23:40:38.966Z,41.93
2023-04-06T23:45:43.406Z,39.50
2023-04-06T23:50:46.455Z,47.67
2023-04-06T23:55:49.313Z,37.42
